This is the latest recevied weather packets stored in our database for station/object NR0Q. If no packets are shown the sender has not sent any weather packets the latest 10 day(s).
| Time | Temp. | Humidity | Pressure | Rain* | Wind** | Luminosity | Snow |
|---|---|---|---|---|---|---|---|
| 1778284801 | 16.11° C | 94% | 1008.5 hPa | 4.06 mm | - | - | - |
| 1778283902 | 15.56° C | 95% | 1008.5 hPa | 5.08 mm | - | - | - |
| 1778283002 | 15.56° C | 95% | 1007.5 hPa | 8.64 mm | - | - | - |
| 1778282101 | 15.56° C | 94% | 1007.5 hPa | 12.19 mm | - | - | - |
| 1778281202 | 15° C | 93% | 1007.5 hPa | 12.19 mm | - | - | - |
| 1778280301 | 15.56° C | 90% | 1007.5 hPa | 10.92 mm | - | - | - |
| 1778279401 | 16.67° C | 87% | 1008.5 hPa | 5.33 mm | - | - | - |
| 1778278501 | 25.56° C | 49% | 1007.5 hPa | 0 mm | - | - | - |
| 1778277601 | 25.56° C | 47% | 1006.4 hPa | 0 mm | - | - | - |
| 1778276702 | 26.11° C | 46% | 1007.5 hPa | 0 mm | - | - | - |
| 1778275801 | 27.22° C | 44% | 1007.5 hPa | 0 mm | - | - | - |
| 1778274901 | 26.67° C | 44% | 1007.5 hPa | 0 mm | - | - | - |
| 1778274001 | 26.67° C | 44% | 1008.5 hPa | 0 mm | - | - | - |
| 1778273101 | 26.67° C | 45% | 1008.5 hPa | 0 mm | - | - | - |
| 1778272201 | 26.11° C | 46% | 1008.5 hPa | 0 mm | - | - | - |
| 1778271301 | 26.11° C | 45% | 1008.5 hPa | 0 mm | - | - | - |
| 1778270401 | 26.11° C | 45% | 1008.5 hPa | 0 mm | - | - | - |
| 1778269501 | 25.56° C | 45% | 1009.5 hPa | 0 mm | - | - | - |
| 1778268601 | 25.56° C | 45% | 1009.5 hPa | 0 mm | - | - | - |
| 1778267701 | 25° C | 45% | 1009.5 hPa | 0 mm | - | - | - |
| 1778266802 | 24.44° C | 46% | 1009.5 hPa | 0 mm | - | - | - |
| 1778265901 | 24.44° C | 45% | 1009.5 hPa | 0 mm | - | - | - |
| 1778265001 | 25.56° C | 44% | 1010.5 hPa | 0 mm | - | - | - |
| 1778264101 | 25° C | 45% | 1010.5 hPa | 0 mm | - | - | - |
| 1778263201 | 24.44° C | 47% | 1010.5 hPa | 0 mm | - | - | - |
* Rain latest hour (hover to see other rain measurements)
** Current wind speed in m/s (hover to see current wind gust speed)